createdAt,value
2019-01-18T00:02:28.184Z,7.53
2019-01-18T00:05:31.882Z,6.93
2019-01-18T00:08:35.521Z,7.07
2019-01-18T00:11:39.224Z,6.47
2019-01-18T00:14:42.876Z,6.03
2019-01-18T00:17:46.596Z,6.37
2019-01-18T00:20:50.243Z,7.03
2019-01-18T00:23:53.937Z,8.70
2019-01-18T00:26:57.591Z,8.33
2019-01-18T00:30:01.281Z,8.37
2019-01-18T00:33:04.931Z,8.73
2019-01-18T00:36:08.663Z,9.30
2019-01-18T00:39:12.349Z,8.87
2019-01-18T00:42:16.021Z,8.63
2019-01-18T00:45:20.875Z,8.73
2019-01-18T00:48:24.577Z,9.87
2019-01-18T00:51:28.227Z,9.60
2019-01-18T00:58:04.852Z,8.93
2019-01-18T01:01:08.531Z,8.30
2019-01-18T01:04:12.186Z,8.87
2019-01-18T01:07:17.429Z,8.33
2019-01-18T01:10:21.063Z,8.43
2019-01-18T01:13:24.755Z,8.67
2019-01-18T01:16:28.403Z,7.27
2019-01-18T01:19:32.100Z,8.20
2019-01-18T01:22:35.746Z,7.80
2019-01-18T01:25:39.469Z,7.17
2019-01-18T01:28:43.124Z,7.13
2019-01-18T01:31:46.820Z,7.37
2019-01-18T01:34:50.480Z,7.57
2019-01-18T01:37:54.178Z,7.03
2019-01-18T01:40:57.804Z,6.50
2019-01-18T01:44:01.503Z,6.87
2019-01-18T01:47:05.148Z,7.00
2019-01-18T01:50:11.922Z,6.43
2019-01-18T01:53:15.566Z,6.30
2019-01-18T01:56:19.278Z,6.10
2019-01-18T01:59:22.910Z,6.23
2019-01-18T02:02:26.649Z,6.40
2019-01-18T02:05:30.292Z,5.57
2019-01-18T02:08:34.026Z,5.70
2019-01-18T02:11:37.672Z,6.30
2019-01-18T02:14:41.373Z,6.03
2019-01-18T02:17:45.023Z,6.20
2019-01-18T02:20:48.714Z,5.63
2019-01-18T02:23:52.368Z,5.80
2019-01-18T02:26:56.058Z,5.70
2019-01-18T02:29:59.703Z,5.90
2019-01-18T02:33:03.380Z,5.40
2019-01-18T02:36:07.036Z,5.70
2019-01-18T02:39:10.716Z,5.77
2019-01-18T02:42:14.344Z,6.83
2019-01-18T02:45:19.863Z,6.50
2019-01-18T02:48:24.795Z,6.60
2019-01-18T02:51:28.524Z,6.50
2019-01-18T02:54:32.199Z,6.10
2019-01-18T02:57:35.912Z,7.03
2019-01-18T03:00:39.608Z,6.07
2019-01-18T03:03:43.358Z,6.60
2019-01-18T03:06:46.991Z,6.37
2019-01-18T03:09:50.607Z,6.33
2019-01-18T03:12:54.283Z,6.80
2019-01-18T03:15:57.960Z,6.70
2019-01-18T03:19:01.595Z,6.80
2019-01-18T03:22:05.301Z,6.50
2019-01-18T03:25:20.567Z,6.47
2019-01-18T03:28:24.237Z,6.17
2019-01-18T03:31:27.893Z,6.37
2019-01-18T03:34:31.592Z,6.33
2019-01-18T03:37:35.242Z,6.57
2019-01-18T03:40:38.992Z,5.97
2019-01-18T03:43:42.603Z,5.60
2019-01-18T03:46:46.296Z,6.17
2019-01-18T03:49:51.340Z,6.27
2019-01-18T03:52:55.018Z,6.10
2019-01-18T03:55:58.680Z,5.80
2019-01-18T03:59:02.409Z,6.00
2019-01-18T04:02:06.045Z,5.83
2019-01-18T04:05:10.942Z,6.00
2019-01-18T04:08:14.603Z,5.70
2019-01-18T04:11:18.284Z,5.73
2019-01-18T04:14:21.939Z,5.47
2019-01-18T04:17:25.636Z,5.53
2019-01-18T04:20:29.284Z,5.17
2019-01-18T04:23:32.991Z,4.63
2019-01-18T04:26:36.634Z,5.50
2019-01-18T04:29:40.318Z,5.37
2019-01-18T04:32:43.988Z,4.77
2019-01-18T04:35:47.664Z,4.53
2019-01-18T04:38:51.304Z,4.77
2019-01-18T04:41:55.044Z,4.70
2019-01-18T04:44:58.692Z,4.67
2019-01-18T04:48:02.425Z,4.23
2019-01-18T04:51:07.338Z,4.50
2019-01-18T04:54:11.055Z,4.00
2019-01-18T04:57:14.678Z,3.83
2019-01-18T05:00:23.716Z,4.27
2019-01-18T05:03:27.351Z,4.90
2019-01-18T05:06:31.129Z,4.30
2019-01-18T05:09:34.765Z,4.40
2019-01-18T05:12:38.478Z,5.70
2019-01-18T05:15:42.109Z,5.67
2019-01-18T05:18:45.846Z,5.30
2019-01-18T05:21:49.465Z,5.27
2019-01-18T05:24:53.165Z,5.67
2019-01-18T05:27:56.813Z,6.13
2019-01-18T05:31:00.517Z,5.67
2019-01-18T05:34:04.156Z,8.87
2019-01-18T05:37:07.900Z,8.97
2019-01-18T05:40:19.108Z,7.40
2019-01-18T05:43:22.803Z,7.53
2019-01-18T05:46:26.486Z,7.73
2019-01-18T05:49:30.160Z,7.50
2019-01-18T05:52:33.817Z,8.37
2019-01-18T05:55:37.509Z,8.47
2019-01-18T05:58:41.156Z,7.80
2019-01-18T06:01:44.831Z,8.30
2019-01-18T06:04:49.480Z,8.60
2019-01-18T06:07:53.175Z,7.90
2019-01-18T06:10:56.812Z,9.30
2019-01-18T06:14:00.536Z,8.27
2019-01-18T06:17:04.162Z,9.10
2019-01-18T06:20:11.225Z,9.33
2019-01-18T06:23:14.871Z,11.10
2019-01-18T06:26:18.629Z,10.53
2019-01-18T06:29:22.321Z,12.30
2019-01-18T06:32:26.022Z,11.37
2019-01-18T06:35:29.746Z,12.43
2019-01-18T06:38:33.380Z,11.80
2019-01-18T06:41:37.635Z,13.10
2019-01-18T06:44:41.323Z,13.70
2019-01-18T06:47:44.996Z,14.53
2019-01-18T06:50:48.724Z,13.60
2019-01-18T06:53:52.481Z,14.60
2019-01-18T06:56:56.897Z,14.97
2019-01-18T07:00:00.548Z,16.07
2019-01-18T07:03:04.323Z,15.27
2019-01-18T07:06:08.031Z,15.10
2019-01-18T07:09:11.793Z,14.77
2019-01-18T07:12:15.537Z,14.13
2019-01-18T07:15:19.352Z,16.03
2019-01-18T07:18:23.016Z,14.97
2019-01-18T07:21:26.775Z,15.07
2019-01-18T07:24:30.415Z,12.67
2019-01-18T07:27:34.098Z,12.77
2019-01-18T07:30:38.284Z,7.83
2019-01-18T07:33:41.994Z,6.60
2019-01-18T07:36:45.970Z,7.40
2019-01-18T07:39:49.678Z,6.87
2019-01-18T07:42:53.343Z,8.93
2019-01-18T07:45:57.038Z,9.03
2019-01-18T07:49:00.714Z,8.57
2019-01-18T07:52:04.436Z,8.53
2019-01-18T07:55:09.508Z,9.93
2019-01-18T07:58:13.193Z,14.77
2019-01-18T08:01:22.048Z,10.30
2019-01-18T08:04:22.172Z,10.40
2019-01-18T08:07:25.832Z,9.50
2019-01-18T08:10:29.551Z,9.50
2019-01-18T08:13:33.196Z,8.50
2019-01-18T08:16:36.900Z,8.93
2019-01-18T08:19:40.556Z,9.83
2019-01-18T08:22:44.332Z,8.80
2019-01-18T08:25:48.014Z,7.93
2019-01-18T08:28:51.705Z,8.73
2019-01-18T08:31:55.358Z,10.37
2019-01-18T08:34:59.050Z,10.87
2019-01-18T08:38:02.719Z,10.03
2019-01-18T08:41:06.397Z,11.20
2019-01-18T08:44:10.040Z,10.47
2019-01-18T08:47:13.804Z,12.10
2019-01-18T08:50:19.382Z,13.10
2019-01-18T08:53:23.075Z,12.80
2019-01-18T08:56:26.749Z,12.07
2019-01-18T08:59:30.503Z,11.97
2019-01-18T09:02:34.164Z,11.20
2019-01-18T09:05:37.875Z,11.50
2019-01-18T09:08:41.519Z,11.43
2019-01-18T09:11:45.224Z,11.60
2019-01-18T09:14:48.896Z,11.53
2019-01-18T09:17:52.598Z,12.30
2019-01-18T09:20:56.263Z,12.43
2019-01-18T09:23:59.957Z,11.73
2019-01-18T09:27:03.600Z,12.50
2019-01-18T09:30:21.325Z,12.83
2019-01-18T09:33:24.959Z,12.33
2019-01-18T09:36:28.714Z,13.37
2019-01-18T09:39:32.346Z,12.93
2019-01-18T09:42:36.024Z,13.23
2019-01-18T09:45:39.723Z,13.13
2019-01-18T09:48:43.416Z,13.10
2019-01-18T09:51:47.083Z,13.07
2019-01-18T09:54:50.777Z,12.97
2019-01-18T09:57:54.436Z,12.70
2019-01-18T10:00:58.133Z,13.30
2019-01-18T10:04:01.788Z,14.37
2019-01-18T10:07:05.509Z,14.57
2019-01-18T10:10:12.575Z,14.57
2019-01-18T10:13:16.271Z,14.40
2019-01-18T10:16:19.910Z,17.83
2019-01-18T10:19:23.605Z,18.87
2019-01-18T10:22:27.287Z,16.17
2019-01-18T10:25:30.954Z,13.17
2019-01-18T10:28:34.603Z,12.83
2019-01-18T10:31:38.284Z,10.80
2019-01-18T10:34:41.969Z,11.20
2019-01-18T10:37:45.676Z,11.00
2019-01-18T10:40:49.308Z,10.23
2019-01-18T10:43:53.020Z,9.83
2019-01-18T10:46:56.818Z,10.20
2019-01-18T10:50:00.715Z,9.80
2019-01-18T10:53:04.888Z,9.53
2019-01-18T10:56:09.050Z,9.93
2019-01-18T10:59:12.743Z,10.40
2019-01-18T11:02:16.443Z,10.17
2019-01-18T11:05:20.720Z,10.97
2019-01-18T11:08:24.408Z,12.13
2019-01-18T11:11:28.084Z,13.80
2019-01-18T11:14:31.773Z,14.17
2019-01-18T11:17:35.442Z,12.40
2019-01-18T11:20:42.243Z,13.00
2019-01-18T11:23:45.900Z,13.03
2019-01-18T11:26:49.613Z,12.00
2019-01-18T11:29:53.243Z,12.27
2019-01-18T11:32:56.935Z,11.37
2019-01-18T11:36:00.591Z,10.50
2019-01-18T11:39:04.861Z,8.63
2019-01-18T11:42:08.502Z,9.13
2019-01-18T11:45:13.208Z,6.73
2019-01-18T11:48:16.884Z,7.17
2019-01-18T11:51:20.581Z,7.30
2019-01-18T11:54:24.278Z,7.47
2019-01-18T11:57:27.935Z,6.57
2019-01-18T12:00:37.630Z,7.00
2019-01-18T12:03:36.924Z,7.27
2019-01-18T12:06:40.593Z,6.13
2019-01-18T12:09:44.302Z,6.50
2019-01-18T12:12:47.945Z,6.20
2019-01-18T12:15:51.660Z,5.97
2019-01-18T12:18:55.304Z,6.13
2019-01-18T12:21:59.010Z,6.20
2019-01-18T12:25:02.666Z,6.90
2019-01-18T12:28:06.369Z,7.70
2019-01-18T12:31:10.055Z,7.13
2019-01-18T12:34:14.905Z,7.90
2019-01-18T12:37:18.534Z,8.27
2019-01-18T12:40:22.251Z,7.03
2019-01-18T12:43:25.915Z,7.60
2019-01-18T12:46:29.600Z,7.60
2019-01-18T12:49:33.278Z,7.20
2019-01-18T12:52:36.975Z,6.60
2019-01-18T12:55:40.610Z,5.40
2019-01-18T12:58:44.331Z,6.20
2019-01-18T13:01:47.980Z,5.50
2019-01-18T13:04:51.884Z,6.27
2019-01-18T13:07:55.539Z,6.10
2019-01-18T13:10:59.230Z,6.57
2019-01-18T13:14:02.978Z,5.97
2019-01-18T13:17:06.662Z,5.77
2019-01-18T13:20:12.646Z,7.43
2019-01-18T13:23:16.348Z,6.40
2019-01-18T13:26:20.041Z,6.80
2019-01-18T13:29:23.745Z,7.17
2019-01-18T13:32:27.388Z,6.87
2019-01-18T13:35:31.121Z,7.20
2019-01-18T13:38:34.729Z,7.20
2019-01-18T13:41:38.434Z,7.67
2019-01-18T13:44:43.741Z,7.90
2019-01-18T13:47:47.439Z,9.50
2019-01-18T13:50:51.207Z,7.70
2019-01-18T13:53:54.898Z,7.60
2019-01-18T13:56:58.555Z,6.57
2019-01-18T14:00:02.258Z,7.53
2019-01-18T14:03:05.923Z,7.13
2019-01-18T14:06:09.674Z,9.07
2019-01-18T14:09:13.299Z,8.70
2019-01-18T14:12:17.020Z,9.40
2019-01-18T14:15:22.533Z,8.83
2019-01-18T14:18:26.232Z,9.30
2019-01-18T14:21:31.241Z,8.17
2019-01-18T14:24:34.964Z,9.23
2019-01-18T14:27:38.614Z,8.67
2019-01-18T14:30:42.331Z,7.10
2019-01-18T14:33:45.964Z,7.20
2019-01-18T14:36:49.681Z,9.57
2019-01-18T14:39:53.332Z,10.17
2019-01-18T14:42:57.328Z,9.67
2019-01-18T14:46:00.981Z,9.60
2019-01-18T14:49:04.682Z,11.63
2019-01-18T14:52:08.351Z,12.97
2019-01-18T14:55:12.040Z,11.13
2019-01-18T14:58:15.683Z,13.57
2019-01-18T15:01:19.391Z,12.27
2019-01-18T15:04:23.057Z,14.37
2019-01-18T15:07:26.796Z,12.23
2019-01-18T15:10:30.457Z,12.10
2019-01-18T15:13:34.154Z,12.83
2019-01-18T15:16:37.804Z,12.57
2019-01-18T15:19:41.575Z,13.27
2019-01-18T15:22:45.289Z,11.80
2019-01-18T15:25:48.984Z,28.07
2019-01-18T15:28:52.631Z,16.50
2019-01-18T15:31:56.387Z,14.43
2019-01-18T15:35:00.092Z,22.17
2019-01-18T15:38:04.758Z,18.40
2019-01-18T15:41:08.382Z,19.93
2019-01-18T15:44:12.087Z,19.57
2019-01-18T15:47:15.732Z,16.70
2019-01-18T15:50:24.573Z,19.20
2019-01-18T15:53:28.223Z,16.80
2019-01-18T15:56:31.920Z,17.80
2019-01-18T15:59:35.597Z,18.63
2019-01-18T16:02:39.321Z,16.63
2019-01-18T16:05:42.957Z,17.23
2019-01-18T16:08:46.666Z,19.90
2019-01-18T16:11:50.317Z,21.63
2019-01-18T16:14:54.077Z,16.70
2019-01-18T16:17:57.698Z,17.00
2019-01-18T16:21:02.616Z,16.83
2019-01-18T16:24:06.372Z,16.63
2019-01-18T16:27:10.075Z,16.10
2019-01-18T16:30:16.402Z,14.80
2019-01-18T16:33:23.566Z,18.73
2019-01-18T16:36:25.625Z,21.47
2019-01-18T16:39:29.643Z,18.87
2019-01-18T16:42:33.293Z,18.83
2019-01-18T16:45:37.014Z,19.30
2019-01-18T16:48:40.679Z,26.17
2019-01-18T16:51:44.389Z,27.40
2019-01-18T16:54:48.042Z,16.70
2019-01-18T16:57:51.758Z,23.23
2019-01-18T17:00:58.422Z,17.13
2019-01-18T17:04:02.093Z,19.40
2019-01-18T17:07:05.764Z,17.10
2019-01-18T17:10:12.575Z,20.00
2019-01-18T17:13:16.238Z,15.00
2019-01-18T17:16:19.980Z,17.30
2019-01-18T17:19:24.087Z,15.73
2019-01-18T17:22:27.858Z,16.53
2019-01-18T17:25:31.516Z,15.37
2019-01-18T17:28:35.232Z,15.37
2019-01-18T17:31:38.911Z,17.40
2019-01-18T17:34:42.619Z,17.10
2019-01-18T17:37:50.652Z,18.97
2019-01-18T17:41:15.656Z,17.07
2019-01-18T17:44:34.315Z,19.90
2019-01-18T17:47:41.150Z,16.43
2019-01-18T17:51:19.662Z,19.50
2019-01-18T17:54:26.509Z,25.37
2019-01-18T17:58:04.549Z,25.37
2019-01-18T18:01:18.893Z,14.40
2019-01-18T18:04:40.766Z,16.47
2019-01-18T18:07:50.532Z,16.10
2019-01-18T18:11:09.823Z,16.00
2019-01-18T18:14:25.541Z,16.93
2019-01-18T18:17:44.419Z,19.90
2019-01-18T18:20:57.125Z,16.10
2019-01-18T18:24:18.808Z,17.77
2019-01-18T18:27:31.569Z,18.07
2019-01-18T18:30:38.302Z,18.73
2019-01-18T18:34:14.083Z,20.97
2019-01-18T18:37:23.718Z,27.60
2019-01-18T18:40:36.228Z,19.10
2019-01-18T18:44:08.542Z,16.87
2019-01-18T18:47:27.352Z,18.70
2019-01-18T18:50:58.467Z,16.27
2019-01-18T18:54:05.330Z,16.17
2019-01-18T18:57:30.364Z,16.90
2019-01-18T19:00:56.371Z,16.87
2019-01-18T19:04:08.680Z,16.60
2019-01-18T19:07:47.081Z,30.27
2019-01-18T19:11:02.883Z,49.73
2019-01-18T19:14:32.234Z,19.97
2019-01-18T19:17:47.515Z,72.63
2019-01-18T19:21:27.717Z,70.80
2019-01-18T19:24:37.327Z,20.37
2019-01-18T19:27:49.820Z,29.10
2019-01-18T19:30:56.587Z,24.53
2019-01-18T19:34:04.499Z,17.70
2019-01-18T19:37:31.021Z,16.67
2019-01-18T19:40:40.717Z,18.37
2019-01-18T19:44:02.494Z,10.77
2019-01-18T19:47:09.343Z,13.20
2019-01-18T19:50:32.780Z,12.93
2019-01-18T19:53:51.425Z,15.37
2019-01-18T19:56:58.224Z,13.83
2019-01-18T20:00:22.671Z,13.73
2019-01-18T20:03:35.178Z,13.13
2019-01-18T20:06:58.924Z,13.47
2019-01-18T20:10:20.635Z,14.50
2019-01-18T20:13:48.874Z,28.83
2019-01-18T20:17:07.911Z,15.70
2019-01-18T20:20:26.784Z,15.90
2019-01-18T20:23:45.440Z,16.07
2019-01-18T20:26:58.159Z,20.97
2019-01-18T20:30:32.147Z,17.87
2019-01-18T20:33:57.167Z,15.73
2019-01-18T20:37:06.589Z,15.53
2019-01-18T20:40:25.715Z,16.03
2019-01-18T20:43:32.515Z,16.30
2019-01-18T20:46:45.016Z,17.60
2019-01-18T20:49:51.813Z,17.93
2019-01-18T20:53:10.887Z,16.53
2019-01-18T20:56:23.385Z,16.93
2019-01-18T20:59:46.943Z,15.87
2019-01-18T21:03:09.690Z,17.33
2019-01-18T21:06:16.503Z,14.80
2019-01-18T21:09:26.231Z,12.23
2019-01-18T21:12:33.087Z,11.17
2019-01-18T21:16:09.829Z,9.93
2019-01-18T21:19:28.439Z,9.93
2019-01-18T21:26:10.586Z,10.33
2019-01-18T21:29:29.463Z,8.77
2019-01-18T21:32:48.304Z,8.27
2019-01-18T21:35:55.076Z,8.97
2019-01-18T21:39:21.250Z,7.47
2019-01-18T21:42:30.763Z,9.30
2019-01-18T21:46:12.720Z,9.03
2019-01-18T21:49:22.502Z,9.80
2019-01-18T21:52:50.464Z,8.60
2019-01-18T21:55:57.229Z,9.17
2019-01-18T21:59:07.031Z,10.67
2019-01-18T22:02:16.422Z,10.37
2019-01-18T22:05:44.585Z,7.70
2019-01-18T22:09:04.918Z,9.10
2019-01-18T22:12:17.456Z,8.13
2019-01-18T22:15:44.660Z,8.30
2019-01-18T22:19:14.053Z,9.00
2019-01-18T22:22:29.775Z,14.60
2019-01-18T22:25:45.394Z,11.07
2019-01-18T22:29:13.563Z,13.13
2019-01-18T22:32:23.219Z,11.93
2019-01-18T22:35:47.926Z,12.17
2019-01-18T22:38:54.805Z,12.63
2019-01-18T22:42:13.551Z,11.43
2019-01-18T22:45:32.465Z,8.47
2019-01-18T22:48:48.360Z,10.83
2019-01-18T22:52:03.927Z,11.63
2019-01-18T22:55:25.779Z,14.37
2019-01-18T22:58:50.915Z,14.07
2019-01-18T23:01:57.763Z,15.33
2019-01-18T23:05:13.736Z,12.90
2019-01-18T23:08:53.752Z,12.47
2019-01-18T23:12:00.542Z,10.07
2019-01-18T23:15:21.761Z,10.63
2019-01-18T23:18:40.292Z,11.37
2019-01-18T23:21:56.137Z,11.90
2019-01-18T23:25:31.392Z,12.10
2019-01-18T23:28:47.271Z,12.43
2019-01-18T23:32:00.008Z,12.40
2019-01-18T23:35:06.752Z,12.77
2019-01-18T23:38:13.622Z,12.10
2019-01-18T23:41:39.853Z,13.97
2019-01-18T23:45:15.545Z,13.40
2019-01-18T23:48:37.095Z,11.93
2019-01-18T23:51:46.450Z,12.73
2019-01-18T23:55:01.797Z,13.80
2019-01-18T23:58:17.512Z,13.53
